Time;durP1;ratioP1;P1;durP2;ratioP2;P2;SDS_P1;SDS_P2;PMS_P1;PMS_P2;Temp;Humidity;BMP_temperature;BMP_pressure;BME280_temperature;BME280_humidity;BME280_pressure;Samples;Min_cycle;Max_cycle;Signal;HPM_P1;HPM_P2
2022/04/12 00:01:49;;;;;;;5.97;4.82;;;;;;;;;;6187688;23;20016;-80
2022/04/12 00:04:17;;;;;;;6.30;5.78;;;;;;;;;;6191878;23;20028;-80
2022/04/12 00:06:45;;;;;;;5.10;4.60;;;;;;;;;;6184121;23;20021;-80
2022/04/12 00:09:13;;;;;;;8.32;5.15;;;;;;;;;;6188577;23;20719;-80
2022/04/12 00:11:42;;;;;;;7.15;6.50;;;;;;;;;;6192031;23;20024;-80
2022/04/12 00:14:10;;;;;;;7.20;6.15;;;;;;;;;;6186279;23;20025;-80
2022/04/12 00:16:38;;;;;;;8.57;4.78;;;;;;;;;;6155721;23;20021;-80
2022/04/12 00:19:07;;;;;;;6.43;5.75;;;;;;;;;;6155804;23;20452;-80
2022/04/12 00:21:35;;;;;;;8.70;5.55;;;;;;;;;;6188494;23;20028;-80
2022/04/12 00:24:04;;;;;;;7.47;6.45;;;;;;;;;;6190988;23;20017;-80
2022/04/12 00:26:33;;;;;;;13.60;5.55;;;;;;;;;;6185058;23;20029;-80
2022/04/12 00:29:01;;;;;;;5.65;5.13;;;;;;;;;;6190782;23;20020;-79
2022/04/12 00:31:30;;;;;;;7.95;5.88;;;;;;;;;;6165596;23;20329;-80
2022/04/12 00:33:59;;;;;;;7.97;4.50;;;;;;;;;;6186761;23;20021;-80
2022/04/12 00:36:28;;;;;;;7.53;5.95;;;;;;;;;;6165812;23;20016;-80
2022/04/12 00:38:56;;;;;;;8.52;4.80;;;;;;;;;;6181481;23;20018;-80
2022/04/12 00:41:24;;;;;;;9.20;6.00;;;;;;;;;;6189284;23;20021;-80
2022/04/12 00:43:52;;;;;;;5.18;4.65;;;;;;;;;;6191187;23;20021;-80
2022/04/12 00:46:20;;;;;;;5.85;4.75;;;;;;;;;;6154719;23;20460;-80
2022/04/12 00:48:48;;;;;;;4.88;4.47;;;;;;;;;;6164674;23;20017;-80
2022/04/12 00:51:16;;;;;;;5.82;5.18;;;;;;;;;;6181194;23;20021;-80
2022/04/12 00:53:44;;;;;;;17.38;5.70;;;;;;;;;;6186873;23;20337;-80
2022/04/12 00:56:12;;;;;;;5.78;5.28;;;;;;;;;;6191788;23;20017;-80
2022/04/12 00:58:45;;;;;;;11.02;5.15;;;;;;;;;;6183878;23;20483;-80
2022/04/12 01:01:13;;;;;;;4.85;4.38;;;;;;;;;;6189789;23;20013;-80
2022/04/12 01:03:41;;;;;;;7.40;5.20;;;;;;;;;;6191218;23;20341;-80
2022/04/12 01:06:09;;;;;;;5.10;4.78;;;;;;;;;;6186022;23;20761;-80
2022/04/12 01:08:37;;;;;;;7.35;4.88;;;;;;;;;;6164093;23;20017;-80
2022/04/12 01:11:07;;;;;;;10.13;5.68;;;;;;;;;;6182212;23;20032;-80
2022/04/12 01:13:35;;;;;;;6.37;4.10;;;;;;;;;;6189079;23;20029;-80
2022/04/12 01:16:07;;;;;;;5.75;4.60;;;;;;;;;;6193159;23;20649;-80
2022/04/12 01:18:37;;;;;;;6.40;5.25;;;;;;;;;;6185539;23;20032;-80
2022/04/12 01:21:05;;;;;;;6.95;4.93;;;;;;;;;;6192226;23;20028;-80
2022/04/12 01:23:49;;;;;;;7.00;6.13;;;;;;;;;;6192511;23;20012;-80
2022/04/12 01:26:17;;;;;;;7.00;4.68;;;;;;;;;;6187090;23;20021;-80
2022/04/12 01:28:45;;;;;;;8.63;5.40;;;;;;;;;;6193315;23;20013;-80
2022/04/12 01:31:13;;;;;;;6.25;5.65;;;;;;;;;;6183165;23;20032;-80
2022/04/12 01:33:42;;;;;;;6.38;4.93;;;;;;;;;;6189385;23;20025;-80
2022/04/12 01:36:10;;;;;;;6.18;5.50;;;;;;;;;;6193396;23;20021;-80
2022/04/12 01:38:38;;;;;;;9.65;7.75;;;;;;;;;;6184324;23;20032;-80
2022/04/12 01:41:06;;;;;;;6.38;4.75;;;;;;;;;;6191789;23;20318;-80
2022/04/12 01:43:35;;;;;;;6.35;5.65;;;;;;;;;;6193038;23;20010;-80
2022/04/12 01:46:03;;;;;;;7.65;5.55;;;;;;;;;;6185703;23;20018;-80
2022/04/12 01:48:31;;;;;;;5.68;5.18;;;;;;;;;;6192151;23;20020;-80
2022/04/12 01:50:59;;;;;;;6.65;5.30;;;;;;;;;;6184092;23;20033;-80
2022/04/12 01:53:27;;;;;;;6.07;5.45;;;;;;;;;;6189054;23;20021;-80
2022/04/12 01:55:55;;;;;;;9.23;5.85;;;;;;;;;;6193247;23;20055;-80
2022/04/12 01:58:38;;;;;;;;;;;;;;;;;;6091473;23;20358;-80
2022/04/12 02:01:06;;;;;;;11.23;5.50;;;;;;;;;;6100029;23;19925;-80
2022/04/12 02:03:35;;;;;;;6.43;4.90;;;;;;;;;;6091652;23;20022;-80
2022/04/12 02:06:03;;;;;;;6.32;5.68;;;;;;;;;;6066133;23;20037;-81
2022/04/12 02:08:31;;;;;;;8.60;6.10;;;;;;;;;;6108334;23;20017;-81
2022/04/12 02:10:59;;;;;;;8.98;5.53;;;;;;;;;;6131511;23;20028;-81
2022/04/12 02:13:27;;;;;;;13.50;5.60;;;;;;;;;;6182993;23;20032;-81
2022/04/12 02:15:55;;;;;;;5.07;4.50;;;;;;;;;;6192633;23;20024;-81
2022/04/12 02:18:23;;;;;;;5.43;4.93;;;;;;;;;;6185378;23;20029;-81
2022/04/12 02:20:51;;;;;;;6.70;6.07;;;;;;;;;;6192940;23;20325;-81
2022/04/12 02:23:19;;;;;;;8.40;5.57;;;;;;;;;;6155222;23;20032;-81
2022/04/12 02:25:47;;;;;;;5.72;5.28;;;;;;;;;;6137728;23;20024;-81
2022/04/12 02:28:16;;;;;;;9.02;5.72;;;;;;;;;;6192755;23;20449;-81
2022/04/12 02:30:44;;;;;;;8.63;6.38;;;;;;;;;;6106872;23;20017;-81
2022/04/12 02:33:12;;;;;;;6.40;5.85;;;;;;;;;;6164603;23;20020;-81
2022/04/12 02:35:40;;;;;;;8.73;7.60;;;;;;;;;;6192914;23;20013;-81
2022/04/12 02:38:08;;;;;;;8.30;6.30;;;;;;;;;;6159568;23;20051;-81
2022/04/12 02:40:36;;;;;;;6.05;5.55;;;;;;;;;;6192604;23;20010;-81
2022/04/12 02:43:04;;;;;;;6.30;5.80;;;;;;;;;;6156875;23;20529;-81
2022/04/12 02:45:32;;;;;;;5.97;5.30;;;;;;;;;;6130396;23;20032;-80
2022/04/12 02:48:00;;;;;;;7.10;6.40;;;;;;;;;;6131217;23;20453;-81
2022/04/12 02:50:30;;;;;;;7.20;6.25;;;;;;;;;;6159601;23;20032;-81
2022/04/12 02:52:58;;;;;;;9.55;8.50;;;;;;;;;;6164767;23;20020;-81
2022/04/12 02:55:26;;;;;;;9.95;5.38;;;;;;;;;;6166127;23;20024;-81
2022/04/12 02:57:54;;;;;;;7.55;5.75;;;;;;;;;;6187529;23;20021;-81
2022/04/12 03:00:22;;;;;;;7.93;6.00;;;;;;;;;;6192471;23;20021;-81
2022/04/12 03:02:50;;;;;;;6.78;5.93;;;;;;;;;;6157397;23;20040;-81
2022/04/12 03:05:19;;;;;;;11.48;7.85;;;;;;;;;;6163961;23;20337;-81
2022/04/12 03:07:47;;;;;;;6.03;5.50;;;;;;;;;;6191844;23;20024;-81
2022/04/12 03:10:15;;;;;;;8.45;6.78;;;;;;;;;;6159393;23;20336;-81
2022/04/12 03:12:43;;;;;;;7.28;6.60;;;;;;;;;;6131413;23;20028;-81
2022/04/12 03:15:11;;;;;;;7.85;5.95;;;;;;;;;;6182479;23;20037;-81
2022/04/12 03:17:39;;;;;;;7.30;6.55;;;;;;;;;;6155025;23;20347;-81
2022/04/12 03:20:07;;;;;;;5.63;4.80;;;;;;;;;;6156012;23;20017;-81
2022/04/12 03:22:35;;;;;;;9.30;5.63;;;;;;;;;;6154754;23;20021;-81
2022/04/12 03:25:03;;;;;;;12.50;6.38;;;;;;;;;;6164626;23;20023;-81
2022/04/12 03:27:32;;;;;;;7.47;6.60;;;;;;;;;;6131713;23;20024;-81
2022/04/12 03:30:00;;;;;;;7.93;7.07;;;;;;;;;;6187251;23;20774;-81
2022/04/12 03:32:28;;;;;;;9.18;7.72;;;;;;;;;;6192612;23;20020;-81
2022/04/12 03:34:56;;;;;;;8.07;6.97;;;;;;;;;;6183429;23;20330;-81
2022/04/12 03:37:24;;;;;;;8.27;7.13;;;;;;;;;;6189374;23;20024;-81
2022/04/12 03:39:52;;;;;;;8.05;6.25;;;;;;;;;;6191498;23;20441;-81
2022/04/12 03:42:20;;;;;;;18.27;7.70;;;;;;;;;;6130684;23;20025;-81
2022/04/12 03:44:48;;;;;;;8.50;6.55;;;;;;;;;;6164332;23;20024;-81
2022/04/12 03:47:16;;;;;;;5.88;5.25;;;;;;;;;;6181846;23;20032;-81
2022/04/12 03:49:44;;;;;;;5.50;5.00;;;;;;;;;;6187586;23;20479;-81
2022/04/12 03:52:12;;;;;;;6.05;5.50;;;;;;;;;;6191792;23;20013;-81
2022/04/12 03:54:40;;;;;;;8.45;5.78;;;;;;;;;;6180993;23;20021;-81
2022/04/12 03:57:09;;;;;;;10.07;6.40;;;;;;;;;;6190309;23;20013;-81
2022/04/12 03:59:37;;;;;;;9.45;7.70;;;;;;;;;;6191833;23;20325;-81
2022/04/12 04:02:05;;;;;;;8.60;6.65;;;;;;;;;;6127896;23;20021;-81
2022/04/12 04:04:33;;;;;;;7.93;6.95;;;;;;;;;;6191538;23;20024;-81
2022/04/12 04:07:04;;;;;;;9.73;8.27;;;;;;;;;;6130015;23;20021;-81
2022/04/12 04:09:32;;;;;;;7.28;6.57;;;;;;;;;;6161007;23;20252;-81
2022/04/12 04:12:03;;;;;;;8.88;7.97;;;;;;;;;;6191933;23;20461;-81
2022/04/12 04:14:33;;;;;;;11.82;6.20;;;;;;;;;;6184889;23;20025;-81
2022/04/12 04:17:01;;;;;;;10.90;8.90;;;;;;;;;;6130336;23;20453;-81
2022/04/12 04:19:29;;;;;;;8.13;6.82;;;;;;;;;;6130145;23;20073;-81
2022/04/12 04:21:57;;;;;;;10.35;6.50;;;;;;;;;;6161064;23;20358;-81
2022/04/12 04:24:25;;;;;;;8.63;6.82;;;;;;;;;;6164868;23;20020;-81
2022/04/12 04:26:55;;;;;;;9.32;5.75;;;;;;;;;;6130460;23;20025;-81
2022/04/12 04:29:23;;;;;;;8.07;6.47;;;;;;;;;;6162979;23;20028;-81
2022/04/12 04:31:52;;;;;;;8.50;7.65;;;;;;;;;;6155377;23;20333;-81
2022/04/12 04:34:20;;;;;;;11.52;7.47;;;;;;;;;;6130237;23;20021;-81
2022/04/12 04:36:48;;;;;;;6.60;6.00;;;;;;;;;;6165873;23;20017;-81
2022/04/12 04:39:16;;;;;;;13.35;8.48;;;;;;;;;;6129166;23;20039;-81
2022/04/12 04:41:44;;;;;;;7.32;6.63;;;;;;;;;;6130775;23;20353;-81
2022/04/12 04:44:12;;;;;;;6.03;5.53;;;;;;;;;;6165365;23;20013;-81
2022/04/12 04:46:40;;;;;;;12.20;7.53;;;;;;;;;;6150549;23;20025;-81
2022/04/12 04:49:10;;;;;;;11.80;8.33;;;;;;;;;;6159500;23;20013;-81
2022/04/12 04:51:41;;;;;;;8.82;5.70;;;;;;;;;;6162450;23;20009;-81
2022/04/12 04:54:09;;;;;;;11.20;6.18;;;;;;;;;;6157661;23;20018;-81
2022/04/12 04:56:37;;;;;;;7.80;7.10;;;;;;;;;;6128012;23;20021;-81
2022/04/12 04:59:05;;;;;;;12.65;7.72;;;;;;;;;;6151012;23;20709;-81
2022/04/12 05:01:33;;;;;;;15.60;6.13;;;;;;;;;;6127314;23;20017;-81
2022/04/12 05:04:01;;;;;;;20.27;6.90;;;;;;;;;;6127575;23;20024;-81
2022/04/12 05:06:29;;;;;;;7.03;6.32;;;;;;;;;;6156876;23;20032;-81
2022/04/12 05:08:57;;;;;;;8.20;7.43;;;;;;;;;;6161859;23;20017;-81
2022/04/12 05:11:25;;;;;;;7.80;6.28;;;;;;;;;;6151511;23;20017;-81
2022/04/12 05:13:55;;;;;;;6.82;6.20;;;;;;;;;;6159384;23;20026;-81
2022/04/12 05:16:23;;;;;;;9.82;7.13;;;;;;;;;;6152324;23;20014;-81
2022/04/12 05:18:51;;;;;;;7.65;6.60;;;;;;;;;;6126227;23;20032;-81
2022/04/12 05:21:19;;;;;;;9.10;6.70;;;;;;;;;;6150967;23;20021;-81
2022/04/12 05:23:47;;;;;;;7.50;6.68;;;;;;;;;;6126295;23;20024;-81
2022/04/12 05:26:15;;;;;;;7.53;6.80;;;;;;;;;;6127278;23;20025;-81
2022/04/12 05:28:45;;;;;;;6.82;5.80;;;;;;;;;;6163149;23;20013;-81
2022/04/12 05:31:14;;;;;;;6.72;6.13;;;;;;;;;;6151969;23;20028;-81
2022/04/12 05:33:43;;;;;;;7.43;5.72;;;;;;;;;;6157924;23;20021;-81
2022/04/12 05:36:11;;;;;;;6.18;5.30;;;;;;;;;;6162329;23;20017;-81
2022/04/12 05:38:39;;;;;;;11.05;6.90;;;;;;;;;;6153081;23;20021;-81
2022/04/12 05:41:07;;;;;;;9.30;5.78;;;;;;;;;;6160840;23;20032;-82
2022/04/12 05:43:35;;;;;;;12.05;7.93;;;;;;;;;;6163585;23;20013;-81
2022/04/12 05:46:03;;;;;;;5.78;5.10;;;;;;;;;;6126412;23;20013;-81
2022/04/12 05:48:31;;;;;;;8.20;7.35;;;;;;;;;;6127403;23;20024;-81
2022/04/12 05:50:59;;;;;;;5.75;5.20;;;;;;;;;;6126612;23;20358;-81
2022/04/12 05:53:28;;;;;;;11.95;5.85;;;;;;;;;;6158152;23;20026;-81
2022/04/12 05:55:56;;;;;;;6.47;5.80;;;;;;;;;;6161954;23;20010;-81
2022/04/12 05:58:25;;;;;;;6.20;4.93;;;;;;;;;;6156331;23;20033;-81
2022/04/12 06:00:53;;;;;;;9.63;5.13;;;;;;;;;;6161255;23;20035;-81
2022/04/12 06:03:21;;;;;;;8.63;5.32;;;;;;;;;;6150230;23;20537;-81
2022/04/12 06:05:49;;;;;;;7.82;6.50;;;;;;;;;;6159096;23;20025;-81
2022/04/12 06:08:17;;;;;;;6.60;5.40;;;;;;;;;;6162264;23;20016;-81
2022/04/12 06:10:45;;;;;;;8.13;7.28;;;;;;;;;;6153528;23;20030;-81
2022/04/12 06:13:13;;;;;;;8.63;7.20;;;;;;;;;;6159960;23;20024;-81
2022/04/12 06:15:41;;;;;;;6.78;5.25;;;;;;;;;;6161632;23;20025;-81
2022/04/12 06:18:10;;;;;;;7.85;4.55;;;;;;;;;;6150290;23;20029;-81
2022/04/12 06:20:38;;;;;;;6.30;4.93;;;;;;;;;;6163152;23;20014;-81
2022/04/12 06:23:06;;;;;;;9.23;4.45;;;;;;;;;;6125676;23;20028;-81
2022/04/12 06:25:34;;;;;;;4.50;4.18;;;;;;;;;;6159857;23;20032;-81
2022/04/12 06:28:02;;;;;;;4.35;3.95;;;;;;;;;;6152745;23;20017;-81
2022/04/12 06:30:30;;;;;;;5.93;4.95;;;;;;;;;;6150644;23;20025;-81
2022/04/12 06:32:58;;;;;;;7.93;6.82;;;;;;;;;;6160835;23;20020;-81
2022/04/12 06:35:26;;;;;;;7.65;4.47;;;;;;;;;;6161572;23;20040;-81
2022/04/12 06:37:56;;;;;;;4.75;4.30;;;;;;;;;;6157606;23;20032;-81
2022/04/12 06:40:25;;;;;;;6.15;3.38;;;;;;;;;;6161396;23;20025;-81
2022/04/12 06:42:53;;;;;;;6.43;4.88;;;;;;;;;;6152971;23;20029;-81
2022/04/12 06:45:22;;;;;;;4.72;4.32;;;;;;;;;;6157002;23;20025;-81
2022/04/12 06:47:54;;;;;;;6.78;5.10;;;;;;;;;;6136767;23;20021;-81
2022/04/12 06:50:22;;;;;;;5.90;3.92;;;;;;;;;;6150543;23;20021;-81
2022/04/12 06:52:50;;;;;;;4.07;3.67;;;;;;;;;;6162719;23;20017;-81
2022/04/12 06:55:18;;;;;;;4.47;3.80;;;;;;;;;;6152452;23;20025;-81
2022/04/12 06:57:46;;;;;;;6.75;4.57;;;;;;;;;;6156594;23;20595;-81
2022/04/12 07:00:17;;;;;;;5.22;4.03;;;;;;;;;;6162800;23;20022;-81
2022/04/12 07:02:46;;;;;;;5.22;3.70;;;;;;;;;;6154494;23;20029;-81
2022/04/12 07:05:14;;;;;;;4.72;3.47;;;;;;;;;;6160825;23;20020;-82
2022/04/12 07:07:43;;;;;;;4.97;3.80;;;;;;;;;;6135987;23;20020;-81
2022/04/12 07:10:12;;;;;;;5.72;4.22;;;;;;;;;;6125357;23;20021;-82
2022/04/12 07:12:41;;;;;;;4.63;4.25;;;;;;;;;;6162718;23;20018;-81
2022/04/12 07:15:09;;;;;;;5.47;4.43;;;;;;;;;;6151226;23;20033;-81
2022/04/12 07:17:37;;;;;;;3.03;2.83;;;;;;;;;;6150410;23;20462;-81
2022/04/12 07:20:06;;;;;;;3.40;3.10;;;;;;;;;;6126244;23;20465;-81
2022/04/12 07:22:34;;;;;;;3.53;3.22;;;;;;;;;;6128645;23;20025;-82
2022/04/12 07:25:02;;;;;;;4.65;3.90;;;;;;;;;;6159541;23;20010;-81
2022/04/12 07:27:36;;;;;;;4.53;4.20;;;;;;;;;;6162762;23;20020;-81
2022/04/12 07:30:05;;;;;;;3.90;2.70;;;;;;;;;;6155726;23;20026;-81
2022/04/12 07:32:33;;;;;;;5.18;4.22;;;;;;;;;;6126155;23;20021;-82
2022/04/12 07:35:01;;;;;;;4.95;3.80;;;;;;;;;;6151361;23;20021;-82
2022/04/12 07:37:29;;;;;;;4.80;3.47;;;;;;;;;;6158790;23;20021;-82
2022/04/12 07:39:58;;;;;;;5.72;3.75;;;;;;;;;;6162083;23;20341;-82
2022/04/12 07:42:26;;;;;;;3.88;3.58;;;;;;;;;;6154133;23;20350;-82
2022/04/12 07:44:54;;;;;;;4.30;3.90;;;;;;;;;;6134501;23;20020;-82
2022/04/12 07:47:23;;;;;;;4.88;3.38;;;;;;;;;;6125187;23;20021;-82
2022/04/12 07:49:51;;;;;;;3.22;2.78;;;;;;;;;;6125376;23;20032;-82
2022/04/12 07:52:19;;;;;;;3.45;2.65;;;;;;;;;;6136713;23;20010;-82
2022/04/12 07:54:47;;;;;;;2.72;2.50;;;;;;;;;;6152030;23;20026;-82
2022/04/12 07:57:15;;;;;;;2.60;2.40;;;;;;;;;;6158900;23;20024;-82
2022/04/12 07:59:43;;;;;;;6.55;2.83;;;;;;;;;;6126173;23;20014;-82
2022/04/12 08:02:11;;;;;;;6.30;4.35;;;;;;;;;;6155189;23;20025;-83
2022/04/12 08:04:41;;;;;;;9.43;2.85;;;;;;;;;;6125826;23;20029;-81
2022/04/12 08:07:09;;;;;;;3.00;2.80;;;;;;;;;;6150988;23;20036;-82
2022/04/12 08:09:37;;;;;;;4.13;3.05;;;;;;;;;;6123853;23;20026;-82
2022/04/12 08:12:05;;;;;;;3.55;3.25;;;;;;;;;;6126279;23;20018;-82
2022/04/12 08:14:33;;;;;;;7.38;3.03;;;;;;;;;;6125890;23;20022;-82
2022/04/12 08:17:01;;;;;;;5.70;2.83;;;;;;;;;;6159832;23;20021;-82
2022/04/12 08:19:29;;;;;;;3.28;2.80;;;;;;;;;;6161679;23;20013;-83
2022/04/12 08:22:00;;;;;;;4.03;3.17;;;;;;;;;;6150243;23;20404;-83
2022/04/12 08:24:29;;;;;;;3.60;2.92;;;;;;;;;;6126589;23;20345;-83
2022/04/12 08:26:57;;;;;;;3.60;3.40;;;;;;;;;;6127556;23;20017;-82
2022/04/12 08:29:25;;;;;;;3.00;2.67;;;;;;;;;;6127127;23;20021;-82
2022/04/12 08:31:53;;;;;;;3.97;2.38;;;;;;;;;;6128515;23;20342;-82
2022/04/12 08:34:21;;;;;;;2.28;2.08;;;;;;;;;;6103221;23;20029;-83
2022/04/12 08:36:49;;;;;;;3.25;2.67;;;;;;;;;;6128486;23;20424;-82
2022/04/12 08:39:17;;;;;;;2.55;2.25;;;;;;;;;;6150284;23;20029;-83
2022/04/12 08:41:45;;;;;;;2.97;2.40;;;;;;;;;;6158528;23;20040;-82
2022/04/12 08:44:17;;;;;;;2.90;2.67;;;;;;;;;;6164275;23;20009;-82
2022/04/12 08:46:46;;;;;;;3.88;1.98;;;;;;;;;;6182279;23;20020;-82
2022/04/12 08:49:15;;;;;;;1.70;1.60;;;;;;;;;;6165554;23;20013;-83
2022/04/12 08:51:46;;;;;;;3.05;2.55;;;;;;;;;;6168141;23;20017;-83
2022/04/12 08:54:14;;;;;;;2.90;2.67;;;;;;;;;;6131384;23;20032;-82
2022/04/12 08:56:43;;;;;;;3.92;1.80;;;;;;;;;;6108470;23;20017;-84
2022/04/12 08:59:19;;;;;;;2.05;1.80;;;;;;;;;;6107991;23;20827;-77
2022/04/12 09:01:47;;;;;;;2.58;2.47;;;;;;;;;;6189322;23;20471;-77
2022/04/12 09:04:15;;;;;;;2.97;1.80;;;;;;;;;;6191124;23;20294;-77
2022/04/12 09:06:50;;;;;;;3.65;2.60;;;;;;;;;;6159302;23;20029;-77
2022/04/12 09:09:19;;;;;;;2.17;2.08;;;;;;;;;;6129918;23;20021;-76
2022/04/12 09:11:57;;;;;;;2.22;2.03;;;;;;;;;;6193478;23;20013;-77
2022/04/12 09:14:26;;;;;;;5.07;2.40;;;;;;;;;;6160333;23;20033;-77
2022/04/12 09:16:54;;;;;;;2.58;2.45;;;;;;;;;;6167551;23;20016;-77
2022/04/12 09:19:41;;;;;;;6.32;2.60;;;;;;;;;;6181161;23;20032;-76
2022/04/12 09:22:13;;;;;;;2.45;2.25;;;;;;;;;;6187823;23;20032;-77
2022/04/12 09:24:49;;;;;;;3.08;2.88;;;;;;;;;;6165803;23;20017;-77
2022/04/12 09:27:25;;;;;;;2.05;1.85;;;;;;;;;;6182985;23;20028;-77
2022/04/12 09:29:57;;;;;;;2.78;2.58;;;;;;;;;;6155911;23;20045;-77
2022/04/12 09:32:25;;;;;;;6.53;2.80;;;;;;;;;;6166798;23;20015;-77
2022/04/12 09:34:54;;;;;;;2.63;2.05;;;;;;;;;;6157373;23;20492;-77
2022/04/12 09:37:26;;;;;;;4.82;2.92;;;;;;;;;;6190516;23;20449;-76
2022/04/12 09:40:00;;;;;;;35.97;4.22;;;;;;;;;;6192236;23;20396;-77
2022/04/12 09:42:43;;;;;;;3.08;2.88;;;;;;;;;;6186311;23;20036;-78
2022/04/12 09:45:13;;;;;;;2.55;2.17;;;;;;;;;;6188952;23;20441;-76
2022/04/12 09:47:42;;;;;;;2.78;2.58;;;;;;;;;;6165981;23;20013;-76
2022/04/12 09:50:32;;;;;;;2.05;1.90;;;;;;;;;;6185739;23;20025;-77
2022/04/12 09:53:01;;;;;;;4.00;2.42;;;;;;;;;;6191291;23;20429;-77
2022/04/12 09:55:34;;;;;;;2.70;2.47;;;;;;;;;;6192963;23;20598;-77
2022/04/12 09:58:22;;;;;;;3.53;3.22;;;;;;;;;;6186258;23;20025;-77
2022/04/12 10:00:50;;;;;;;2.13;2.03;;;;;;;;;;6166572;23;20345;-79
2022/04/12 10:03:19;;;;;;;3.20;2.53;;;;;;;;;;6182460;23;20040;-79
2022/04/12 10:05:48;;;;;;;2.15;2.05;;;;;;;;;;6162548;23;20027;-80
2022/04/12 10:08:20;;;;;;;2.40;2.30;;;;;;;;;;6191696;23;20021;-80
2022/04/12 10:10:48;;;;;;;4.38;3.78;;;;;;;;;;6184366;23;20028;-79
2022/04/12 10:13:16;;;;;;;7.90;3.20;;;;;;;;;;6191321;23;22448;-79
2022/04/12 10:15:44;;;;;;;4.90;3.42;;;;;;;;;;6192863;23;20024;-79
2022/04/12 10:18:17;;;;;;;5.72;5.15;;;;;;;;;;6186237;23;20028;-79
2022/04/12 10:20:45;;;;;;;3.92;2.58;;;;;;;;;;6193218;23;20024;-79
2022/04/12 10:23:20;;;;;;;2.80;2.47;;;;;;;;;;6182063;23;20353;-79
2022/04/12 10:25:50;;;;;;;3.05;2.85;;;;;;;;;;6188596;23;20028;-79
2022/04/12 10:28:19;;;;;;;5.15;3.92;;;;;;;;;;6192741;23;20419;-79
2022/04/12 10:30:47;;;;;;;5.45;3.38;;;;;;;;;;6158384;23;20357;-79
2022/04/12 10:33:27;;;;;;;5.47;3.00;;;;;;;;;;6164449;23;20017;-79
2022/04/12 10:35:55;;;;;;;3.30;3.00;;;;;;;;;;6166487;23;20452;-80
2022/04/12 10:38:37;;;;;;;2.72;2.15;;;;;;;;;;6184161;23;20417;-80
2022/04/12 10:41:13;;;;;;;2.95;2.75;;;;;;;;;;6191397;23;20020;-80
2022/04/12 10:43:41;;;;;;;3.42;2.95;;;;;;;;;;6192717;23;20013;-79
2022/04/12 10:46:11;;;;;;;4.55;2.78;;;;;;;;;;6184421;23;20033;-79
2022/04/12 10:48:40;;;;;;;3.03;2.73;;;;;;;;;;6191780;23;20020;-79
2022/04/12 10:51:08;;;;;;;4.50;3.70;;;;;;;;;;6155173;23;20259;-79
2022/04/12 10:53:39;;;;;;;4.13;2.97;;;;;;;;;;6188156;23;20040;-79
2022/04/12 10:56:11;;;;;;;2.33;2.13;;;;;;;;;;6192793;23;20016;-81
2022/04/12 10:58:39;;;;;;;3.38;2.25;;;;;;;;;;6184901;23;20028;-79
2022/04/12 11:01:12;;;;;;;3.25;2.97;;;;;;;;;;6165142;23;20013;-79
2022/04/12 11:03:40;;;;;;;1.67;1.48;;;;;;;;;;6191884;23;20024;-80
2022/04/12 11:06:10;;;;;;;2.47;2.25;;;;;;;;;;6186956;23;20021;-79
2022/04/12 11:08:46;;;;;;;2.90;2.38;;;;;;;;;;6181436;23;20063;-79
2022/04/12 11:11:21;;;;;;;1.95;1.85;;;;;;;;;;6182400;23;20028;-79
2022/04/12 11:13:49;;;;;;;8.80;2.28;;;;;;;;;;6187727;23;20025;-79
2022/04/12 11:16:18;;;;;;;2.08;1.92;;;;;;;;;;6192733;23;20009;-78
2022/04/12 11:18:48;;;;;;;3.25;2.30;;;;;;;;;;6183616;23;20040;-79
2022/04/12 11:21:17;;;;;;;2.22;1.75;;;;;;;;;;6190406;23;20042;-79
2022/04/12 11:23:46;;;;;;;1.85;1.75;;;;;;;;;;6191397;23;20020;-79
2022/04/12 11:26:32;;;;;;;3.28;1.85;;;;;;;;;;6186305;23;20741;-79
2022/04/12 11:29:00;;;;;;;4.25;1.83;;;;;;;;;;6191054;23;20017;-79
2022/04/12 11:31:28;;;;;;;3.92;2.03;;;;;;;;;;6192364;23;20021;-79
2022/04/12 11:33:58;;;;;;;6.07;2.65;;;;;;;;;;6186998;23;20020;-79
2022/04/12 11:36:26;;;;;;;3.10;2.13;;;;;;;;;;6192110;23;20020;-79
2022/04/12 11:38:56;;;;;;;1.95;1.75;;;;;;;;;;6181878;23;20063;-79
2022/04/12 11:41:24;;;;;;;3.95;2.30;;;;;;;;;;6163427;23;20021;-79
2022/04/12 11:43:59;;;;;;;3.50;2.00;;;;;;;;;;6192253;23;20017;-79
2022/04/12 11:46:29;;;;;;;2.50;2.30;;;;;;;;;;6182907;23;20033;-79
2022/04/12 11:49:27;;;;;;;1.60;1.50;;;;;;;;;;6190901;23;20028;-80
2022/04/12 11:51:55;;;;;;;2.75;2.55;;;;;;;;;;6139759;23;20017;-79
2022/04/12 11:54:25;;;;;;;2.58;2.38;;;;;;;;;;6155280;23;20361;-81
2022/04/12 11:57:07;;;;;;;2.67;1.65;;;;;;;;;;6164502;23;20013;-80
2022/04/12 11:59:36;;;;;;;2.03;1.92;;;;;;;;;;6161733;23;20028;-80
2022/04/12 12:02:06;;;;;;;5.30;2.63;;;;;;;;;;6180199;23;20457;-79
2022/04/12 12:04:35;;;;;;;2.15;1.88;;;;;;;;;;6163800;23;20009;-80
2022/04/12 12:07:03;;;;;;;3.55;1.67;;;;;;;;;;6129632;23;20377;-80
2022/04/12 12:09:31;;;;;;;2.97;2.38;;;;;;;;;;6184349;23;20031;-80
2022/04/12 12:12:00;;;;;;;3.35;2.55;;;;;;;;;;6190780;23;20009;-80
2022/04/12 12:14:29;;;;;;;4.43;2.25;;;;;;;;;;6183595;23;20052;-80
2022/04/12 12:17:04;;;;;;;3.70;3.40;;;;;;;;;;6190189;23;20329;-80
2022/04/12 12:19:33;;;;;;;4.07;2.17;;;;;;;;;;6189421;23;20016;-80
2022/04/12 12:22:02;;;;;;;1.70;1.60;;;;;;;;;;6158971;23;20017;-80
2022/04/12 12:24:34;;;;;;;3.15;2.00;;;;;;;;;;6188098;23;20020;-79
2022/04/12 12:27:03;;;;;;;3.08;1.88;;;;;;;;;;6181688;23;20029;-79
2022/04/12 12:29:36;;;;;;;2.70;1.65;;;;;;;;;;6160624;23;20017;-81
2022/04/12 12:32:04;;;;;;;6.40;2.30;;;;;;;;;;6164244;23;20333;-79
2022/04/12 12:34:33;;;;;;;2.17;2.08;;;;;;;;;;6182803;23;20028;-79
2022/04/12 12:37:08;;;;;;;4.65;2.50;;;;;;;;;;6153410;23;20024;-79
2022/04/12 12:39:42;;;;;;;2.38;1.63;;;;;;;;;;6160706;23;20013;-80
2022/04/12 12:42:10;;;;;;;2.45;2.25;;;;;;;;;;6184823;23;20025;-79
2022/04/12 12:44:38;;;;;;;2.85;2.55;;;;;;;;;;6189372;23;20017;-79
2022/04/12 12:47:09;;;;;;;2.50;2.17;;;;;;;;;;6181517;23;20106;-80
2022/04/12 12:49:38;;;;;;;2.55;2.22;;;;;;;;;;6185758;23;20021;-81
2022/04/12 12:52:11;;;;;;;2.15;2.05;;;;;;;;;;6163896;23;20284;-80
2022/04/12 12:54:39;;;;;;;3.47;3.17;;;;;;;;;;6180846;23;20028;-80
2022/04/12 12:57:09;;;;;;;3.65;2.28;;;;;;;;;;6189155;23;20013;-80
2022/04/12 12:59:39;;;;;;;3.58;2.65;;;;;;;;;;6189948;23;20013;-78
2022/04/12 13:02:08;;;;;;;3.25;1.90;;;;;;;;;;6185317;23;20413;-81
2022/04/12 13:04:38;;;;;;;1.90;1.77;;;;;;;;;;6189842;23;20009;-79
2022/04/12 13:07:13;;;;;;;4.68;1.70;;;;;;;;;;6181157;23;20025;-80
2022/04/12 13:09:42;;;;;;;3.88;2.05;;;;;;;;;;6184358;23;20052;-79
2022/04/12 13:12:11;;;;;;;3.13;2.70;;;;;;;;;;6191964;23;20017;-79
2022/04/12 13:14:42;;;;;;;2.10;1.77;;;;;;;;;;6184516;23;20036;-79
2022/04/12 13:17:10;;;;;;;1.90;1.80;;;;;;;;;;6190782;23;20333;-80
2022/04/12 13:19:39;;;;;;;2.10;1.73;;;;;;;;;;6191097;23;20445;-79
2022/04/12 13:22:07;;;;;;;1.98;1.27;;;;;;;;;;6186740;23;20464;-82
2022/04/12 13:24:39;;;;;;;1.65;1.55;;;;;;;;;;6190294;23;20009;-79
2022/04/12 13:27:08;;;;;;;6.13;1.80;;;;;;;;;;6182849;23;20032;-79
2022/04/12 13:29:36;;;;;;;1.77;1.67;;;;;;;;;;6162098;23;20264;-80
2022/04/12 13:32:04;;;;;;;5.30;2.00;;;;;;;;;;6192685;23;20017;-80
2022/04/12 13:34:35;;;;;;;2.27;2.07;;;;;;;;;;6184479;23;20032;-79
2022/04/12 13:37:04;;;;;;;1.70;1.50;;;;;;;;;;6191375;23;20009;-80
2022/04/12 13:39:32;;;;;;;2.22;1.63;;;;;;;;;;6189222;23;20386;-80
2022/04/12 13:42:01;;;;;;;3.78;2.30;;;;;;;;;;6187091;23;20028;-83
2022/04/12 13:44:29;;;;;;;2.08;1.95;;;;;;;;;;6191501;23;20009;-83
2022/04/12 13:47:00;;;;;;;2.13;1.88;;;;;;;;;;6130023;23;20028;-85
2022/04/12 13:49:28;;;;;;;1.85;1.60;;;;;;;;;;6162557;23;20028;-84
2022/04/12 13:51:57;;;;;;;2.80;2.60;;;;;;;;;;6166045;23;20017;-84
2022/04/12 13:54:26;;;;;;;6.35;2.30;;;;;;;;;;6184072;23;20062;-85
2022/04/12 13:56:55;;;;;;;4.30;1.73;;;;;;;;;;6166170;23;20024;-84
2022/04/12 13:59:24;;;;;;;3.05;2.55;;;;;;;;;;6155287;23;20025;-83
2022/04/12 14:01:53;;;;;;;1.85;1.75;;;;;;;;;;6188613;23;20341;-84
2022/04/12 14:04:22;;;;;;;2.40;2.20;;;;;;;;;;6192762;23;20009;-85
2022/04/12 14:06:50;;;;;;;2.30;1.90;;;;;;;;;;6184385;23;20333;-86
2022/04/12 14:09:18;;;;;;;2.08;1.98;;;;;;;;;;6188582;23;20029;-84
2022/04/12 14:11:47;;;;;;;2.95;2.10;;;;;;;;;;6193082;23;20341;-86
2022/04/12 14:14:16;;;;;;;2.22;2.03;;;;;;;;;;6156127;23;20036;-82
2022/04/12 14:16:47;;;;;;;2.20;2.00;;;;;;;;;;6166160;23;20013;-85
2022/04/12 14:19:16;;;;;;;4.10;2.33;;;;;;;;;;6181565;23;20021;-86
2022/04/12 14:21:44;;;;;;;2.30;1.98;;;;;;;;;;6188609;23;20020;-86
2022/04/12 14:24:13;;;;;;;2.00;1.85;;;;;;;;;;6192026;23;20016;-85
2022/04/12 14:26:41;;;;;;;5.22;2.40;;;;;;;;;;6155257;23;20036;-84
2022/04/12 14:29:15;;;;;;;2.70;1.85;;;;;;;;;;6189757;23;20013;-82
2022/04/12 14:31:43;;;;;;;2.60;2.40;;;;;;;;;;6164924;23;20013;-83
2022/04/12 14:34:12;;;;;;;3.05;2.72;;;;;;;;;;6185202;23;20064;-83
2022/04/12 14:36:40;;;;;;;2.03;1.90;;;;;;;;;;6165020;23;20468;-81
2022/04/12 14:39:08;;;;;;;3.50;2.15;;;;;;;;;;6152490;23;20028;-82
2022/04/12 14:41:36;;;;;;;2.42;2.22;;;;;;;;;;6189196;23;20025;-81
2022/04/12 14:44:05;;;;;;;4.65;1.88;;;;;;;;;;6192742;23;20741;-80
2022/04/12 14:46:33;;;;;;;3.65;1.70;;;;;;;;;;6151809;23;20449;-80
2022/04/12 14:49:01;;;;;;;2.08;1.98;;;;;;;;;;6161363;23;20066;-81
2022/04/12 14:51:29;;;;;;;4.82;3.30;;;;;;;;;;6162607;23;20021;-80
2022/04/12 14:53:57;;;;;;;6.95;2.95;;;;;;;;;;6157182;23;20070;-80
2022/04/12 14:56:26;;;;;;;3.47;1.92;;;;;;;;;;6162568;23;20468;-80